Time;durP1;ratioP1;P1;durP2;ratioP2;P2;SDS_P1;SDS_P2;PMS_P1;PMS_P2;Temp;Humidity;BMP_temperature;BMP_pressure;BME280_temperature;BME280_humidity;BME280_pressure;Samples;Min_cycle;Max_cycle;Signal;HPM_P1;HPM_P2
2023/06/22 00:01:22;;;;;;;15.23;6.13;;;12.00;99.90;;;;;;5071875;28;20201;-69
2023/06/22 00:03:50;;;;;;;12.83;5.67;;;12.10;99.90;;;;;;5071588;28;20231;-69
2023/06/22 00:06:17;;;;;;;18.07;7.53;;;12.10;99.90;;;;;;5051693;28;20221;-68
2023/06/22 00:08:45;;;;;;;21.53;7.87;;;12.20;99.90;;;;;;5071458;28;20686;-69
2023/06/22 00:11:12;;;;;;;19.57;8.87;;;12.40;99.90;;;;;;5071726;28;20171;-71
2023/06/22 00:13:40;;;;;;;20.43;6.87;;;12.50;99.90;;;;;;5070462;28;20174;-68
2023/06/22 00:16:07;;;;;;;18.53;7.23;;;12.80;99.90;;;;;;5074707;28;20226;-68
2023/06/22 00:18:35;;;;;;;18.60;6.80;;;12.90;99.90;;;;;;5072057;28;20174;-68
2023/06/22 00:21:02;;;;;;;26.47;7.43;;;13.10;99.90;;;;;;5071769;28;20175;-67
2023/06/22 00:23:33;;;;;;;23.97;7.50;;;13.40;99.90;;;;;;5071289;28;20187;-70
2023/06/22 00:26:01;;;;;;;13.87;5.80;;;13.50;99.90;;;;;;5071536;28;20529;-68
2023/06/22 00:28:28;;;;;;;12.40;5.73;;;13.50;99.90;;;;;;5071893;28;20187;-67
2023/06/22 00:30:56;;;;;;;10.73;4.97;;;13.90;99.90;;;;;;5071271;28;20188;-68
2023/06/22 00:33:23;;;;;;;14.43;6.23;;;13.70;99.90;;;;;;5071567;28;20209;-68
2023/06/22 00:35:52;;;;;;;16.20;5.37;;;13.60;99.90;;;;;;5071764;28;20213;-68
2023/06/22 00:38:20;;;;;;;13.33;5.27;;;13.70;99.90;;;;;;5071281;28;20175;-70
2023/06/22 00:40:47;;;;;;;19.80;5.53;;;14.20;99.90;;;;;;5071827;28;20172;-69
2023/06/22 00:43:15;;;;;;;12.97;6.47;;;15.60;99.90;;;;;;5071082;28;20234;-70
2023/06/22 00:45:42;;;;;;;27.63;5.43;;;15.60;99.90;;;;;;5070751;28;20184;-69
2023/06/22 00:48:10;;;;;;;16.53;5.23;;;15.40;99.90;;;;;;5071739;28;20689;-69
2023/06/22 00:50:38;;;;;;;13.40;6.07;;;15.30;99.90;;;;;;5071754;28;20184;-69
2023/06/22 00:53:08;;;;;;;18.93;7.20;;;15.30;99.90;;;;;;5070823;28;20180;-69
2023/06/22 00:58:59;;;;;;;13.17;5.90;;;15.30;99.90;;;;;;5070193;28;20226;-69
2023/06/22 01:01:26;;;;;;;14.90;5.83;;;15.40;99.90;;;;;;5069816;28;20180;-68
2023/06/22 01:03:57;;;;;;;13.80;5.50;;;15.10;99.90;;;;;;5072444;28;20176;-69
2023/06/22 01:06:37;;;;;;;8.37;4.90;;;14.80;99.90;;;;;;5070743;28;20570;-68
2023/06/22 01:09:22;;;;;;;8.90;5.50;;;14.80;99.90;;;;;;5065115;28;20215;-69
2023/06/22 01:12:00;;;;;;;9.23;4.23;;;15.00;99.90;;;;;;5071027;28;20558;-69
2023/06/22 01:15:03;;;;;;;9.13;4.60;;;15.00;99.90;;;;;;5070859;28;20582;-69
2023/06/22 01:17:32;;;;;;;8.70;4.23;;;15.30;99.90;;;;;;5062853;28;20194;-69
2023/06/22 01:20:05;;;;;;;9.30;4.73;;;15.50;99.90;;;;;;5070810;28;20668;-70
2023/06/22 01:22:46;;;;;;;5.47;4.70;;;15.10;99.90;;;;;;5070624;28;20674;-70
2023/06/22 01:25:21;;;;;;;13.07;4.13;;;15.00;99.90;;;;;;5071604;28;20179;-69
2023/06/22 01:28:00;;;;;;;10.47;4.67;;;15.10;99.90;;;;;;5075055;28;20215;-69
2023/06/22 01:30:30;;;;;;;12.67;4.63;;;15.70;99.90;;;;;;5074566;28;20258;-70
2023/06/22 01:32:59;;;;;;;10.23;4.50;;;15.50;99.90;;;;;;5074888;28;20265;-69
2023/06/22 01:35:27;;;;;;;9.70;5.33;;;15.30;99.90;;;;;;5074634;28;20259;-69
2023/06/22 01:37:55;;;;;;;9.87;5.10;;;15.00;99.90;;;;;;5074369;28;20218;-70
2023/06/22 01:40:24;;;;;;;15.60;4.60;;;14.80;99.90;;;;;;5074754;28;20180;-70
2023/06/22 01:42:52;;;;;;;12.40;5.87;;;14.60;99.90;;;;;;5074646;28;20176;-68
2023/06/22 01:45:20;;;;;;;11.60;4.67;;;14.70;99.90;;;;;;5074280;28;20179;-68
2023/06/22 01:47:48;;;;;;;11.77;4.97;;;14.80;99.90;;;;;;5074625;28;20553;-68
2023/06/22 01:50:17;;;;;;;7.63;4.63;;;14.90;99.90;;;;;;5074390;28;20713;-68
2023/06/22 01:52:45;;;;;;;11.33;4.27;;;14.90;99.90;;;;;;5073830;28;20180;-68
2023/06/22 01:55:13;;;;;;;8.53;4.70;;;15.10;99.90;;;;;;5074699;28;20207;-71
2023/06/22 01:57:41;;;;;;;7.80;4.80;;;15.20;99.90;;;;;;5074113;28;20271;-69
2023/06/22 02:00:17;;;;;;;9.23;5.53;;;15.20;99.90;;;;;;5073846;28;20191;-70
2023/06/22 02:03:03;;;;;;;9.43;4.90;;;15.20;99.90;;;;;;5058258;28;20638;-68
2023/06/22 02:05:37;;;;;;;7.77;4.97;;;15.60;99.90;;;;;;5075000;28;20914;-68
2023/06/22 02:08:08;;;;;;;10.33;5.53;;;15.70;99.90;;;;;;5074125;28;20203;-69
2023/06/22 02:10:37;;;;;;;10.90;5.70;;;15.80;99.90;;;;;;5073554;28;20191;-70
2023/06/22 02:13:09;;;;;;;9.30;5.50;;;16.00;99.90;;;;;;5073825;28;20172;-71
2023/06/22 02:15:38;;;;;;;8.17;3.13;;;16.00;99.90;;;;;;5074190;28;20231;-68
2023/06/22 02:18:05;;;;;;;7.10;2.90;;;15.80;99.90;;;;;;5074165;28;20264;-68
2023/06/22 02:20:36;;;;;;;4.67;2.87;;;15.80;99.90;;;;;;5073124;28;20590;-67
2023/06/22 02:23:05;;;;;;;5.53;3.03;;;15.90;99.90;;;;;;5070800;28;20179;-68
2023/06/22 02:25:33;;;;;;;5.53;2.73;;;16.00;99.90;;;;;;5074016;28;20637;-67
2023/06/22 02:28:02;;;;;;;3.40;2.60;;;15.90;99.90;;;;;;5073690;28;20215;-69
2023/06/22 02:30:29;;;;;;;4.00;2.80;;;15.80;99.90;;;;;;5073956;28;20176;-68
2023/06/22 02:33:00;;;;;;;4.43;2.33;;;15.70;99.90;;;;;;5073754;28;20183;-70
2023/06/22 02:35:32;;;;;;;11.13;3.30;;;15.70;99.90;;;;;;5073302;28;20180;-71
2023/06/22 02:38:00;;;;;;;5.10;3.07;;;16.00;99.90;;;;;;5073423;28;20176;-70
2023/06/22 02:40:29;;;;;;;7.00;3.30;;;16.40;99.90;;;;;;5073646;28;20187;-68
2023/06/22 02:43:02;;;;;;;4.83;2.13;;;16.80;99.90;;;;;;5073163;28;20180;-68
2023/06/22 02:45:30;;;;;;;7.57;3.87;;;17.00;99.90;;;;;;5074094;28;20179;-69
2023/06/22 02:47:58;;;;;;;8.10;4.17;;;16.60;99.90;;;;;;5074546;28;20212;-68
2023/06/22 02:50:26;;;;;;;9.10;5.27;;;16.70;99.90;;;;;;5074664;28;20175;-68
2023/06/22 02:52:54;;;;;;;15.30;6.27;;;16.90;99.90;;;;;;5074641;28;20183;-69
2023/06/22 02:55:21;;;;;;;9.53;5.40;;;17.00;99.90;;;;;;5074551;28;20184;-69
2023/06/22 02:57:52;;;;;;;7.70;3.67;;;16.80;99.90;;;;;;5074502;28;20184;-70
2023/06/22 03:00:21;;;;;;;16.30;6.63;;;16.70;99.90;;;;;;5074458;28;20698;-69
2023/06/22 03:02:49;;;;;;;23.27;8.83;;;16.50;99.90;;;;;;5073102;28;20728;-68
2023/06/22 03:05:18;;;;;;;12.70;6.83;;;16.50;99.90;;;;;;5074429;28;20263;-69
2023/06/22 03:07:46;;;;;;;20.93;5.10;;;16.50;99.90;;;;;;5072909;28;20220;-70
2023/06/22 03:10:15;;;;;;;8.93;3.93;;;16.20;99.90;;;;;;5074364;28;20512;-70
2023/06/22 03:12:43;;;;;;;7.67;3.83;;;16.10;99.90;;;;;;5074130;28;20205;-68
2023/06/22 03:15:13;;;;;;;9.93;3.93;;;15.90;99.90;;;;;;5074008;28;20306;-71
2023/06/22 03:17:41;;;;;;;12.10;4.60;;;15.90;99.90;;;;;;5074082;28;20267;-70
2023/06/22 03:20:11;;;;;;;15.23;5.00;;;15.60;99.90;;;;;;5074060;28;20534;-68
2023/06/22 03:22:40;;;;;;;15.67;5.17;;;15.30;99.90;;;;;;5073989;28;20544;-68
2023/06/22 03:25:15;;;;;;;16.80;5.33;;;15.40;99.90;;;;;;5073874;28;20270;-69
2023/06/22 03:27:43;;;;;;;13.33;4.70;;;15.50;99.90;;;;;;5073863;28;20213;-68
2023/06/22 03:30:12;;;;;;;13.87;5.67;;;15.40;99.90;;;;;;5073969;28;20255;-70
2023/06/22 03:32:42;;;;;;;17.20;5.20;;;15.40;99.90;;;;;;5056478;28;20730;-69
2023/06/22 03:35:13;;;;;;;13.60;5.23;;;15.20;99.90;;;;;;5071237;28;20610;-68
2023/06/22 03:37:41;;;;;;;16.87;5.03;;;15.10;99.90;;;;;;5071839;28;20265;-67
2023/06/22 03:40:09;;;;;;;14.93;5.27;;;15.00;99.90;;;;;;5071123;28;20192;-68
2023/06/22 03:42:37;;;;;;;14.20;5.50;;;14.80;99.90;;;;;;5071559;28;20275;-68
2023/06/22 03:45:05;;;;;;;12.23;4.93;;;14.80;99.90;;;;;;5072605;28;20211;-67
2023/06/22 03:47:33;;;;;;;17.67;6.60;;;14.70;99.90;;;;;;5071511;28;20219;-70
2023/06/22 03:50:03;;;;;;;14.50;5.03;;;14.80;99.90;;;;;;5070819;28;20195;-68
2023/06/22 03:52:31;;;;;;;12.27;4.80;;;14.80;99.90;;;;;;5072191;28;20234;-68
2023/06/22 03:54:59;;;;;;;12.47;5.10;;;15.00;99.90;;;;;;5070741;28;20187;-69
2023/06/22 03:57:26;;;;;;;13.17;4.67;;;14.80;99.90;;;;;;5072327;28;20225;-68
2023/06/22 03:59:57;;;;;;;15.87;3.90;;;14.70;99.90;;;;;;5071645;28;20180;-68
2023/06/22 04:02:25;;;;;;;15.50;4.47;;;14.60;99.90;;;;;;5071629;28;20248;-68
2023/06/22 04:04:53;;;;;;;15.13;3.77;;;14.70;99.90;;;;;;5072164;28;20237;-69
2023/06/22 04:07:21;;;;;;;10.03;3.57;;;14.80;99.90;;;;;;5071873;28;20249;-69
2023/06/22 04:09:49;;;;;;;10.20;3.97;;;14.70;99.90;;;;;;5071504;28;20187;-69
2023/06/22 04:12:16;;;;;;;8.57;3.53;;;14.70;99.90;;;;;;5071704;28;20624;-68
2023/06/22 04:14:44;;;;;;;11.20;3.07;;;14.70;99.90;;;;;;5072040;28;20286;-69
2023/06/22 04:17:14;;;;;;;6.60;3.10;;;14.50;99.90;;;;;;5071514;28;20183;-68
2023/06/22 04:19:42;;;;;;;9.07;3.10;;;14.50;99.90;;;;;;5072146;28;20201;-68
2023/06/22 04:22:13;;;;;;;12.60;2.43;;;14.40;99.90;;;;;;5071798;28;20212;-68
2023/06/22 04:24:41;;;;;;;5.27;2.57;;;14.40;99.90;;;;;;5071170;28;20171;-68
2023/06/22 04:27:09;;;;;;;5.50;3.03;;;14.50;99.90;;;;;;5071482;28;20223;-68
2023/06/22 04:29:38;;;;;;;6.97;2.70;;;14.50;99.90;;;;;;5071644;28;20534;-68
2023/06/22 04:32:06;;;;;;;9.17;3.47;;;14.50;99.90;;;;;;5071146;28;20223;-68
2023/06/22 04:34:34;;;;;;;8.87;3.20;;;14.50;99.90;;;;;;5071450;28;20667;-68
2023/06/22 04:37:01;;;;;;;9.87;3.20;;;14.40;99.90;;;;;;5070220;28;20191;-67
2023/06/22 04:39:29;;;;;;;9.00;2.80;;;14.30;99.90;;;;;;5071039;28;20668;-67
2023/06/22 04:42:00;;;;;;;8.43;2.40;;;14.40;99.90;;;;;;5071542;28;20189;-68
2023/06/22 04:44:27;;;;;;;11.53;3.50;;;14.30;99.90;;;;;;5071591;28;20184;-70
2023/06/22 04:47:03;;;;;;;6.83;2.77;;;14.40;99.90;;;;;;5071127;28;20215;-70
2023/06/22 04:49:37;;;;;;;4.57;2.07;;;14.20;99.90;;;;;;5071386;28;20216;-70
2023/06/22 04:52:07;;;;;;;10.43;2.90;;;14.20;99.90;;;;;;5071514;28;20537;-70
2023/06/22 04:54:36;;;;;;;9.57;2.70;;;14.10;99.90;;;;;;5070990;28;20710;-69
2023/06/22 04:57:09;;;;;;;6.10;2.87;;;14.10;99.90;;;;;;5071810;28;20177;-67
2023/06/22 04:59:41;;;;;;;10.37;3.10;;;14.10;99.90;;;;;;5071997;28;20183;-71
2023/06/22 05:02:09;;;;;;;10.20;3.60;;;14.10;99.90;;;;;;5076267;28;20275;-70
2023/06/22 05:04:40;;;;;;;11.73;3.83;;;14.10;99.90;;;;;;5076411;28;20221;-70
2023/06/22 05:07:08;;;;;;;7.77;4.00;;;14.10;99.90;;;;;;5076894;28;20208;-69
2023/06/22 05:09:36;;;;;;;9.53;4.07;;;14.00;99.90;;;;;;5076613;28;20203;-69
2023/06/22 05:12:04;;;;;;;13.37;4.67;;;14.00;99.90;;;;;;5076512;28;20661;-71
2023/06/22 05:14:32;;;;;;;13.97;5.07;;;14.00;99.90;;;;;;5076426;28;20229;-69
2023/06/22 05:17:03;;;;;;;9.63;4.60;;;14.00;99.90;;;;;;5076454;28;20666;-70
2023/06/22 05:19:33;;;;;;;10.70;4.70;;;13.90;99.90;;;;;;5076350;28;20665;-69
2023/06/22 05:22:01;;;;;;;19.60;5.93;;;13.80;99.90;;;;;;5057340;28;20184;-70
2023/06/22 05:24:28;;;;;;;16.57;6.27;;;13.80;99.90;;;;;;5074802;28;20187;-68
2023/06/22 05:26:56;;;;;;;16.13;7.40;;;13.70;99.90;;;;;;5074781;28;20218;-70
2023/06/22 05:29:24;;;;;;;16.57;7.10;;;13.70;99.90;;;;;;5074354;28;20183;-70
2023/06/22 05:31:52;;;;;;;20.37;7.33;;;13.70;99.90;;;;;;5074511;28;20610;-70
2023/06/22 05:34:19;;;;;;;14.03;5.97;;;13.60;99.90;;;;;;5074022;28;20218;-68
2023/06/22 05:36:47;;;;;;;15.17;6.13;;;13.60;99.90;;;;;;5073935;28;20180;-70
2023/06/22 05:39:16;;;;;;;12.30;5.73;;;13.60;99.90;;;;;;5074225;28;20176;-70
2023/06/22 05:41:44;;;;;;;13.17;4.53;;;13.60;99.90;;;;;;5074487;28;20183;-68
2023/06/22 05:44:12;;;;;;;11.80;3.70;;;13.50;99.90;;;;;;5073868;28;20180;-69
2023/06/22 05:46:46;;;;;;;10.07;3.23;;;13.50;99.90;;;;;;5073995;28;20221;-67
2023/06/22 05:49:15;;;;;;;9.40;3.73;;;13.40;99.90;;;;;;5074436;28;20188;-68
2023/06/22 05:51:43;;;;;;;11.37;4.00;;;13.40;99.90;;;;;;5073785;28;20237;-68
2023/06/22 05:54:13;;;;;;;10.87;4.07;;;13.20;99.90;;;;;;5074386;28;20652;-70
2023/06/22 05:56:41;;;;;;;7.63;3.90;;;13.00;99.90;;;;;;5073862;28;20636;-69
2023/06/22 05:59:12;;;;;;;17.00;5.20;;;12.80;99.90;;;;;;5073333;28;20184;-70
2023/06/22 06:01:40;;;;;;;12.30;4.80;;;12.70;99.90;;;;;;5073981;28;20175;-69
2023/06/22 06:04:10;;;;;;;11.53;5.00;;;12.50;99.90;;;;;;5073818;28;20182;-69
2023/06/22 06:06:38;;;;;;;15.43;5.07;;;12.50;99.90;;;;;;5073436;28;20206;-69
2023/06/22 06:09:07;;;;;;;11.60;4.77;;;12.50;99.90;;;;;;5073994;28;20168;-69
2023/06/22 06:11:35;;;;;;;15.73;4.30;;;12.50;99.90;;;;;;5072805;28;20179;-68
2023/06/22 06:14:03;;;;;;;8.33;4.57;;;12.50;99.90;;;;;;5072852;28;20204;-69
2023/06/22 06:16:30;;;;;;;8.77;4.20;;;12.40;99.90;;;;;;5073628;28;20182;-69
2023/06/22 06:18:58;;;;;;;8.33;4.30;;;12.30;99.90;;;;;;5073746;28;20170;-69
2023/06/22 06:21:26;;;;;;;11.27;3.63;;;12.30;99.90;;;;;;5063311;28;20184;-69
2023/06/22 06:23:53;;;;;;;13.53;4.87;;;12.20;99.90;;;;;;5073647;28;20260;-70
2023/06/22 06:26:39;;;;;;;12.10;4.63;;;12.10;99.90;;;;;;5073529;28;20221;-68
2023/06/22 06:29:07;;;;;;;18.43;5.27;;;12.10;99.90;;;;;;5073368;28;20192;-69
2023/06/22 06:31:34;;;;;;;11.50;5.33;;;12.10;99.90;;;;;;5073740;28;20521;-70
2023/06/22 06:34:02;;;;;;;15.80;6.13;;;12.00;99.90;;;;;;5070755;28;20240;-69
2023/06/22 06:36:30;;;;;;;8.37;4.90;;;12.00;99.90;;;;;;5060214;28;20190;-69
2023/06/22 06:38:58;;;;;;;12.70;5.00;;;11.90;99.90;;;;;;5073254;28;20186;-70
2023/06/22 06:41:26;;;;;;;12.07;5.03;;;11.90;99.90;;;;;;5073269;28;20184;-72
2023/06/22 06:43:53;;;;;;;12.87;5.17;;;11.90;99.90;;;;;;5072953;28;20261;-69
2023/06/22 06:46:21;;;;;;;11.17;5.63;;;11.80;99.90;;;;;;5072690;28;20284;-68
2023/06/22 06:48:49;;;;;;;12.67;6.03;;;11.90;99.90;;;;;;5072987;28;20676;-68
2023/06/22 06:51:16;;;;;;;10.93;6.07;;;11.90;99.90;;;;;;5072339;28;20533;-67
2023/06/22 06:53:44;;;;;;;16.87;6.70;;;11.90;99.90;;;;;;5073097;28;20269;-68
2023/06/22 06:56:12;;;;;;;11.67;5.90;;;11.90;99.90;;;;;;5073196;28;20204;-70
2023/06/22 06:58:42;;;;;;;12.80;6.47;;;11.90;99.90;;;;;;5072308;28;20546;-69
2023/06/22 07:01:10;;;;;;;12.60;5.40;;;11.90;99.90;;;;;;5072851;28;20174;-69
2023/06/22 07:03:38;;;;;;;13.57;5.90;;;11.90;99.90;;;;;;5072938;28;20177;-69
2023/06/22 07:06:05;;;;;;;16.07;6.30;;;11.90;99.90;;;;;;5072415;28;20186;-68
2023/06/22 07:08:35;;;;;;;14.40;6.50;;;12.00;99.90;;;;;;5072819;28;20186;-67
2023/06/22 07:11:02;;;;;;;14.83;5.77;;;12.00;99.90;;;;;;5072699;28;20650;-69
2023/06/22 07:13:30;;;;;;;15.10;7.07;;;12.00;99.90;;;;;;5072323;28;20185;-70
2023/06/22 07:15:58;;;;;;;12.23;6.57;;;12.00;99.90;;;;;;5072647;28;20236;-69
2023/06/22 07:18:26;;;;;;;13.07;6.20;;;11.90;99.90;;;;;;5072533;28;20177;-70
2023/06/22 07:20:54;;;;;;;9.93;5.60;;;11.80;99.90;;;;;;5072165;28;20168;-69
2023/06/22 07:23:22;;;;;;;12.60;5.37;;;11.70;99.90;;;;;;5072236;28;20176;-69
2023/06/22 07:25:49;;;;;;;11.00;5.60;;;11.70;99.90;;;;;;5072710;28;20178;-70
2023/06/22 07:28:17;;;;;;;10.40;5.53;;;11.70;99.90;;;;;;5072157;28;20700;-70
2023/06/22 07:30:45;;;;;;;13.33;6.40;;;11.70;99.90;;;;;;5072359;28;20180;-70
2023/06/22 07:33:13;;;;;;;13.33;7.13;;;11.70;99.90;;;;;;5072214;28;20675;-70
2023/06/22 07:35:41;;;;;;;15.27;6.80;;;11.70;99.90;;;;;;5071816;28;20214;-70
2023/06/22 07:38:09;;;;;;;14.47;7.00;;;11.80;99.90;;;;;;5072248;28;20182;-69
2023/06/22 07:40:36;;;;;;;16.20;7.17;;;11.70;99.90;;;;;;5072270;28;20186;-70
2023/06/22 07:43:04;;;;;;;13.40;6.80;;;11.70;99.90;;;;;;5072165;28;20627;-70
2023/06/22 07:45:34;;;;;;;12.53;7.40;;;11.70;99.90;;;;;;5072199;28;20182;-70
2023/06/22 07:48:02;;;;;;;14.83;8.27;;;11.70;99.90;;;;;;5070751;28;20573;-70
2023/06/22 07:50:31;;;;;;;14.77;7.97;;;11.70;99.90;;;;;;5071593;28;20174;-70
2023/06/22 07:52:58;;;;;;;19.20;9.43;;;11.70;99.90;;;;;;5071833;28;20577;-70
2023/06/22 07:55:26;;;;;;;20.90;9.43;;;11.70;99.90;;;;;;5072040;28;20260;-69
2023/06/22 07:57:54;;;;;;;21.63;10.93;;;11.70;99.90;;;;;;5071429;28;20186;-69
2023/06/22 08:00:22;;;;;;;16.00;10.93;;;11.70;99.90;;;;;;5072812;28;20220;-69
2023/06/22 08:02:49;;;;;;;20.93;12.53;;;11.70;99.90;;;;;;5072872;28;20186;-69
2023/06/22 08:05:17;;;;;;;19.53;9.83;;;11.80;99.90;;;;;;5072792;28;20185;-69
2023/06/22 08:07:45;;;;;;;22.40;9.60;;;11.80;99.90;;;;;;5072971;28;20317;-69
2023/06/22 08:10:14;;;;;;;18.03;9.30;;;11.80;99.90;;;;;;5073145;28;20604;-72
2023/06/22 08:12:42;;;;;;;16.80;7.97;;;11.80;99.90;;;;;;5073082;28;20535;-70
2023/06/22 08:15:10;;;;;;;17.70;8.40;;;11.80;99.90;;;;;;5073228;28;20232;-69
2023/06/22 08:17:39;;;;;;;15.17;8.10;;;11.70;99.90;;;;;;5072846;28;20186;-70
2023/06/22 08:20:16;;;;;;;24.37;10.33;;;11.60;99.90;;;;;;5072663;28;20180;-69
2023/06/22 08:22:45;;;;;;;23.07;11.20;;;11.70;99.90;;;;;;5073003;28;20172;-71
2023/06/22 08:25:13;;;;;;;27.27;11.43;;;11.70;99.90;;;;;;5073099;28;20261;-70
2023/06/22 08:27:41;;;;;;;24.70;12.27;;;11.70;99.90;;;;;;5073117;28;20266;-71
2023/06/22 08:30:10;;;;;;;33.60;14.57;;;11.70;99.90;;;;;;5072957;28;20177;-71
2023/06/22 08:32:38;;;;;;;25.93;12.27;;;11.60;99.90;;;;;;5073034;28;20205;-71
2023/06/22 08:35:08;;;;;;;30.40;11.40;;;11.70;99.90;;;;;;5072363;28;20185;-70
2023/06/22 08:37:38;;;;;;;25.43;11.57;;;11.70;99.90;;;;;;5073027;28;20223;-69
2023/06/22 08:40:09;;;;;;;30.27;12.90;;;11.90;99.90;;;;;;5072857;28;20182;-70
2023/06/22 08:42:38;;;;;;;30.17;11.87;;;11.80;99.90;;;;;;5072970;28;20181;-70
2023/06/22 08:45:06;;;;;;;34.50;12.57;;;11.70;99.90;;;;;;5073097;28;20262;-71
2023/06/22 08:47:34;;;;;;;32.93;12.33;;;11.60;99.90;;;;;;5072811;28;20199;-69
2023/06/22 08:50:05;;;;;;;28.73;13.27;;;11.60;99.90;;;;;;5072986;28;20627;-71
2023/06/22 08:52:33;;;;;;;23.13;11.83;;;11.60;99.90;;;;;;5072913;28;20181;-70
2023/06/22 08:55:01;;;;;;;26.60;13.27;;;11.60;99.90;;;;;;5072789;28;20171;-70
2023/06/22 08:57:30;;;;;;;28.03;12.50;;;11.60;99.90;;;;;;5072956;28;20272;-70
2023/06/22 09:00:00;;;;;;;23.70;11.37;;;11.60;99.90;;;;;;5072862;28;20529;-70
2023/06/22 09:02:30;;;;;;;26.50;11.63;;;11.60;99.90;;;;;;5072766;28;20869;-70
2023/06/22 09:05:03;;;;;;;26.27;11.43;;;11.60;99.90;;;;;;5072731;28;20186;-71
2023/06/22 09:07:31;;;;;;;21.80;10.77;;;11.60;99.90;;;;;;5072736;28;20222;-70
2023/06/22 09:09:59;;;;;;;23.23;10.60;;;11.50;99.90;;;;;;5052732;28;20678;-70
2023/06/22 09:12:27;;;;;;;21.47;10.03;;;11.60;99.90;;;;;;5071053;28;20183;-70
2023/06/22 09:14:55;;;;;;;28.57;11.20;;;11.50;99.90;;;;;;5070773;28;20224;-70
2023/06/22 09:17:23;;;;;;;24.10;10.40;;;11.50;99.90;;;;;;5070661;28;20253;-70
2023/06/22 09:19:51;;;;;;;28.93;13.77;;;11.50;99.90;;;;;;5070966;28;20174;-71
2023/06/22 09:22:18;;;;;;;26.00;12.83;;;11.40;99.90;;;;;;5070883;28;20644;-69
2023/06/22 09:24:46;;;;;;;20.70;12.53;;;11.40;99.90;;;;;;5070554;28;20646;-70
2023/06/22 09:27:14;;;;;;;21.60;13.47;;;11.50;99.90;;;;;;5069676;28;20224;-70
2023/06/22 09:29:42;;;;;;;20.93;12.37;;;11.50;99.90;;;;;;5070890;28;20177;-70
2023/06/22 09:32:09;;;;;;;22.57;12.93;;;11.40;99.90;;;;;;5070610;28;20179;-71
2023/06/22 09:34:37;;;;;;;25.50;15.53;;;11.30;99.90;;;;;;5070742;28;20182;-71
2023/06/22 09:37:05;;;;;;;32.27;17.03;;;11.20;99.90;;;;;;5070855;28;20264;-70
2023/06/22 09:39:33;;;;;;;25.83;18.83;;;11.20;99.90;;;;;;5070379;28;20180;-71
2023/06/22 09:42:01;;;;;;;31.60;18.23;;;11.10;99.90;;;;;;5070617;28;20526;-70
2023/06/22 09:44:29;;;;;;;36.37;19.03;;;11.10;99.90;;;;;;5072475;28;20178;-70
2023/06/22 09:46:57;;;;;;;29.53;19.97;;;11.10;99.90;;;;;;5073705;28;20210;-70
2023/06/22 09:49:24;;;;;;;34.67;20.13;;;11.10;99.90;;;;;;5076084;28;20260;-70
2023/06/22 09:51:53;;;;;;;26.70;20.30;;;11.10;99.90;;;;;;5075213;28;20667;-69
2023/06/22 09:54:20;;;;;;;33.40;23.23;;;11.10;99.90;;;;;;5075420;28;20184;-69
2023/06/22 09:56:48;;;;;;;30.67;22.57;;;11.10;99.90;;;;;;5079191;28;20204;-70
2023/06/22 09:59:16;;;;;;;33.00;22.20;;;11.20;99.90;;;;;;5077995;28;20230;-69
2023/06/22 10:01:44;;;;;;;32.30;19.87;;;11.20;99.90;;;;;;5078121;28;20182;-69
2023/06/22 10:04:11;;;;;;;30.17;17.90;;;11.20;99.90;;;;;;5078957;28;20189;-70
2023/06/22 10:06:40;;;;;;;23.53;16.87;;;11.20;99.90;;;;;;5076453;28;20303;-69
2023/06/22 10:09:08;;;;;;;21.93;13.50;;;11.20;99.90;;;;;;5078426;28;20172;-70
2023/06/22 10:11:36;;;;;;;27.03;15.40;;;11.20;99.90;;;;;;5075142;28;20177;-71
2023/06/22 10:14:04;;;;;;;22.20;13.63;;;11.20;99.90;;;;;;5075001;28;20257;-70
2023/06/22 10:16:33;;;;;;;26.90;14.50;;;11.20;99.90;;;;;;5075182;28;20635;-71
2023/06/22 10:19:01;;;;;;;29.63;15.97;;;11.20;99.90;;;;;;5075017;28;20180;-71
2023/06/22 10:21:29;;;;;;;33.13;19.37;;;11.20;99.90;;;;;;5074941;28;20653;-70
2023/06/22 10:23:57;;;;;;;36.83;25.53;;;11.10;99.90;;;;;;5074848;28;20584;-70
2023/06/22 10:26:28;;;;;;;35.13;24.10;;;11.20;99.90;;;;;;5074744;28;20260;-70
2023/06/22 10:28:56;;;;;;;37.10;25.03;;;11.20;99.90;;;;;;5075170;28;20204;-70
2023/06/22 10:31:24;;;;;;;34.10;21.43;;;11.10;99.90;;;;;;5074530;28;20515;-71
2023/06/22 10:33:51;;;;;;;33.40;22.40;;;11.10;99.90;;;;;;5074920;28;20227;-70
2023/06/22 10:36:19;;;;;;;30.77;23.23;;;11.10;99.90;;;;;;5074815;28;20174;-71
2023/06/22 10:38:47;;;;;;;28.67;22.87;;;11.10;99.90;;;;;;5074362;28;20661;-70
2023/06/22 10:41:15;;;;;;;26.80;21.37;;;11.10;99.90;;;;;;5074645;28;20173;-70
2023/06/22 10:43:43;;;;;;;27.27;18.80;;;11.10;99.90;;;;;;5074560;28;20170;-70
2023/06/22 10:46:10;;;;;;;24.37;16.90;;;11.10;99.90;;;;;;5074390;28;20179;-70
2023/06/22 10:48:38;;;;;;;25.97;16.60;;;11.10;99.90;;;;;;5074612;28;20181;-70
2023/06/22 10:51:05;;;;;;;28.53;15.67;;;11.10;99.90;;;;;;5074342;28;20267;-70
2023/06/22 10:53:33;;;;;;;19.47;12.63;;;11.10;99.90;;;;;;5074687;28;20598;-71
2023/06/22 10:56:00;;;;;;;22.10;13.83;;;11.10;99.90;;;;;;5073910;28;20508;-70
2023/06/22 10:58:28;;;;;;;21.73;12.87;;;11.20;99.90;;;;;;5073641;28;20260;-71
2023/06/22 11:00:55;;;;;;;23.33;12.63;;;11.10;99.90;;;;;;5073968;28;20583;-71
2023/06/22 11:03:22;;;;;;;18.13;11.93;;;11.10;99.90;;;;;;5074216;28;20204;-70
2023/06/22 11:05:50;;;;;;;24.40;13.77;;;11.00;99.90;;;;;;5074224;28;20257;-71
2023/06/22 11:08:17;;;;;;;25.70;16.60;;;11.00;99.90;;;;;;5073805;28;20212;-70
2023/06/22 11:10:45;;;;;;;20.47;14.07;;;11.00;99.90;;;;;;5074188;28;20173;-71
2023/06/22 11:13:12;;;;;;;23.67;15.80;;;11.00;99.90;;;;;;5074117;28;20177;-71
2023/06/22 11:15:40;;;;;;;24.43;17.37;;;11.00;99.90;;;;;;5073806;28;20262;-70
2023/06/22 11:18:07;;;;;;;27.07;15.63;;;11.00;99.90;;;;;;5073833;28;20183;-70
2023/06/22 11:20:38;;;;;;;24.43;17.33;;;10.90;99.90;;;;;;5073932;28;20178;-70
2023/06/22 11:23:08;;;;;;;28.77;19.37;;;10.90;99.90;;;;;;5073746;28;20169;-71
2023/06/22 11:25:38;;;;;;;25.37;20.67;;;11.00;99.90;;;;;;5074006;28;20185;-70
2023/06/22 11:28:05;;;;;;;32.63;20.77;;;11.00;99.90;;;;;;5073636;28;20215;-70
2023/06/22 11:30:33;;;;;;;28.90;20.97;;;11.00;99.90;;;;;;5073288;28;20181;-70
2023/06/22 11:33:01;;;;;;;27.00;17.67;;;11.00;99.90;;;;;;5073635;28;20196;-70
2023/06/22 11:35:28;;;;;;;27.23;19.30;;;11.00;99.90;;;;;;5073671;28;20271;-70
2023/06/22 11:37:56;;;;;;;32.30;19.73;;;11.00;99.90;;;;;;5072906;28;20212;-70
2023/06/22 11:40:23;;;;;;;30.00;19.33;;;11.00;99.90;;;;;;5071704;28;20184;-70
2023/06/22 11:42:51;;;;;;;32.53;20.47;;;11.00;99.90;;;;;;5072288;28;20189;-70
2023/06/22 11:45:18;;;;;;;31.20;21.87;;;11.00;99.90;;;;;;5072612;28;20641;-70
2023/06/22 11:47:46;;;;;;;26.90;17.80;;;11.00;99.90;;;;;;5072333;28;20214;-70
2023/06/22 11:50:13;;;;;;;24.80;16.40;;;11.00;99.90;;;;;;5073310;28;20222;-70
2023/06/22 11:52:41;;;;;;;22.40;17.63;;;11.00;99.90;;;;;;5072471;28;20588;-70
2023/06/22 11:55:08;;;;;;;23.40;17.70;;;11.10;99.90;;;;;;5072334;28;20182;-70
2023/06/22 11:57:51;;;;;;;27.23;19.17;;;11.10;99.90;;;;;;5072631;28;20182;-70
2023/06/22 12:00:20;;;;;;;28.23;19.20;;;11.10;99.90;;;;;;5072861;28;20199;-70
2023/06/22 12:02:47;;;;;;;22.00;16.73;;;11.00;99.90;;;;;;5072674;28;20188;-70
2023/06/22 12:05:15;;;;;;;25.47;17.53;;;11.00;99.90;;;;;;5072866;28;20205;-70
2023/06/22 12:07:42;;;;;;;27.83;15.83;;;10.90;99.90;;;;;;5072037;28;20267;-69
2023/06/22 12:10:10;;;;;;;23.67;15.50;;;11.00;99.90;;;;;;5071974;28;20174;-69
2023/06/22 12:12:37;;;;;;;23.33;17.13;;;11.00;99.90;;;;;;5072189;28;20561;-69
2023/06/22 12:15:05;;;;;;;24.07;17.10;;;10.90;99.90;;;;;;5072496;28;20221;-70
2023/06/22 12:17:33;;;;;;;24.33;17.73;;;11.00;99.90;;;;;;5071952;28;20181;-70
2023/06/22 12:20:01;;;;;;;26.97;19.27;;;10.90;99.90;;;;;;5071608;28;20268;-70
2023/06/22 12:22:28;;;;;;;24.40;17.73;;;10.90;99.90;;;;;;5071855;28;20652;-70
2023/06/22 12:24:56;;;;;;;24.10;17.30;;;10.90;99.90;;;;;;5072630;28;20173;-70
2023/06/22 12:27:23;;;;;;;24.80;16.03;;;10.90;99.90;;;;;;5070160;28;20316;-69
2023/06/22 12:29:50;;;;;;;23.90;15.20;;;10.90;99.90;;;;;;5068013;28;20184;-70
2023/06/22 12:32:18;;;;;;;21.37;15.60;;;10.80;99.90;;;;;;5068442;28;20183;-70
2023/06/22 12:34:46;;;;;;;24.37;16.43;;;10.90;99.90;;;;;;5072460;28;20274;-70
2023/06/22 12:37:13;;;;;;;26.13;15.73;;;10.90;99.90;;;;;;5071565;28;20653;-70
2023/06/22 12:39:42;;;;;;;21.63;15.30;;;10.90;99.90;;;;;;5072001;28;20193;-70
2023/06/22 12:42:11;;;;;;;21.83;14.30;;;10.90;99.90;;;;;;5065792;28;20181;-70
2023/06/22 12:44:39;;;;;;;21.20;13.93;;;10.90;99.90;;;;;;5070841;28;20247;-70
2023/06/22 12:47:08;;;;;;;16.87;13.13;;;10.90;99.90;;;;;;5071834;28;20228;-70